| time (UTC) | temp C | wind direction | speed KPH | gust KPH | rain 1hr cm | rain 24hr cm | rain mn cm | humidity % | barometer mb |
| 20260906131529 | 21 | 55 | 8.0 | 19.3 | 0.00 | 0.00 | 0.00 | 39 | 1015.8 |
| 20260906130012 | 21 | 30 | 8.0 | 16.1 | 0.00 | 0.00 | 0.00 | 39 | 1015.8 |
| 20260906124545 | 21 | 27 | 6.4 | 12.9 | 0.00 | 0.00 | 0.00 | 39 | 1015.9 |
| 20260906123043 | 21 | 22 | 4.8 | 9.7 | 0.00 | 0.00 | 0.00 | 39 | 1015.7 |
| 20260906121540 | 21 | 37 | 4.8 | 8.0 | 0.00 | 0.00 | 0.00 | 39 | 1015.3 |
| 20260906120040 | 21 | 38 | 1.6 | 6.4 | 0.00 | 0.00 | 0.00 | 39 | 1015.0 |
| 20260906114536 | 21 | 38 | 3.2 | 8.0 | 0.00 | 0.00 | 0.00 | 39 | 1015.1 |
| 20260906113037 | 21 | 38 | 3.2 | 4.8 | 0.00 | 0.00 | 0.00 | 39 | 1014.7 |
| 20260906111532 | 21 | 38 | 3.2 | 4.8 | 0.00 | 0.00 | 0.00 | 39 | 1014.5 |
| 20260906110031 | 21 | 39 | 4.8 | 9.7 | 0.00 | 0.00 | 0.00 | 39 | 1014.3 |
| 20260906104535 | 21 | 46 | 4.8 | 11.3 | 0.00 | 0.00 | 0.00 | 39 | 1014.2 |
| 20260906103030 | 21 | 74 | 4.8 | 11.3 | 0.00 | 0.00 | 0.00 | 39 | 1014.2 |
| 20260906101532 | 21 | 54 | 6.4 | 9.7 | 0.00 | 0.00 | 0.00 | 39 | 1014.1 |
| 20260906100028 | 21 | 57 | 6.4 | 14.5 | 0.00 | 0.00 | 0.00 | 39 | 1013.9 |
| 20260906094537 | 21 | 31 | 9.7 | 16.1 | 0.00 | 0.00 | 0.00 | 39 | 1014.1 |
| 20260906093036 | 21 | 62 | 9.7 | 17.7 | 0.00 | 0.00 | 0.00 | 39 | 1013.6 |
| 20260906091527 | 21 | 82 | 8.0 | 17.7 | 0.00 | 0.00 | 0.00 | 39 | 1013.6 |
| 20260906090024 | 20 | 40 | 11.3 | 19.3 | 0.00 | 0.00 | 0.00 | 39 | 1013.9 |
| 20260906084536 | 20 | 32 | 9.7 | 19.3 | 0.00 | 0.00 | 0.00 | 39 | 1014.0 |
| 20260906083022 | 20 | 49 | 6.4 | 11.3 | 0.00 | 0.00 | 0.00 | 39 | 1013.9 |
| 20260906081519 | 20 | 50 | 8.0 | 16.1 | 0.00 | 0.00 | 0.00 | 39 | 1013.9 |
| 20260906080027 | 21 | 53 | 6.4 | 14.5 | 0.00 | 0.00 | 0.00 | 39 | 1013.8 |
| 20260906074516 | 21 | 63 | 6.4 | 14.5 | 0.00 | 0.00 | 0.00 | 39 | 1013.8 |
| 20260906073014 | 21 | 53 | 8.0 | 16.1 | 0.00 | 0.00 | 0.00 | 39 | 1014.1 |
| 20260906071512 | 21 | 59 | 8.0 | 19.3 | 0.00 | 0.00 | 0.00 | 39 | 1014.1 |
| 20260906070008 | 21 | 63 | 6.4 | 14.5 | 0.00 | 0.00 | 0.00 | 39 | 1014.1 |
| 20260906064511 | 22 | 55 | 6.4 | 14.5 | 0.00 | 0.00 | 0.00 | 39 | 1014.3 |
| 20260906063006 | 22 | 51 | 6.4 | 9.7 | 0.00 | 0.00 | 0.00 | 39 | 1014.3 |
| 20260906061503 | 22 | 61 | 3.2 | 4.8 | 0.00 | 0.00 | 0.00 | 39 | 1014.1 |
| 20260906060002 | 22 | 61 | 3.2 | 4.8 | 0.00 | 0.00 | 0.00 | 39 | 1014.1 |
| 20260906054559 | 22 | 61 | 3.2 | 6.4 | 0.00 | 0.00 | 0.00 | 39 | 1013.9 |
| 20260906053057 | 22 | 61 | 4.8 | 8.0 | 0.00 | 0.00 | 0.00 | 39 | 1013.7 |
| 20260906051603 | 23 | 61 | 3.2 | 9.7 | 0.00 | 0.00 | 0.00 | 39 | 1013.6 |
| 20260906050050 | 23 | 53 | 8.0 | 16.1 | 0.00 | 0.00 | 0.00 | 39 | 1013.3 |
| 20260906044549 | 23 | 61 | 12.9 | 25.7 | 0.00 | 0.00 | 0.00 | 39 | 1013.1 |
| 20260906043049 | 24 | 67 | 4.8 | 12.9 | 0.00 | 0.00 | 0.00 | 39 | 1013.2 |
| 20260906041552 | 24 | 54 | 9.7 | 17.7 | 0.00 | 0.00 | 0.00 | 39 | 1012.9 |
| 20260906040045 | 25 | 76 | 14.5 | 27.4 | 0.00 | 0.00 | 0.00 | 39 | 1012.8 |
| 20260906034547 | 25 | 54 | 6.4 | 11.3 | 0.00 | 0.00 | 0.00 | 39 | 1012.8 |
| 20260906033044 | 25 | 40 | 8.0 | 22.5 | 0.00 | 0.00 | 0.00 | 39 | 1012.8 |
| 20260906031541 | 25 | 46 | 11.3 | 19.3 | 0.00 | 0.00 | 0.00 | 39 | 1012.7 |
| 20260906030041 | 26 | 62 | 11.3 | 20.9 | 0.00 | 0.00 | 0.00 | 39 | 1012.6 |
| 20260906024541 | 26 | 41 | 16.1 | 24.1 | 0.00 | 0.00 | 0.00 | 39 | 1012.4 |
| 20260906023036 | 26 | 34 | 12.9 | 24.1 | 0.00 | 0.00 | 0.00 | 39 | 1012.2 |
| 20260906021537 | 27 | 28 | 11.3 | 20.9 | 0.00 | 0.00 | 0.00 | 39 | 1012.1 |
| 20260906020044 | 27 | 32 | 11.3 | 22.5 | 0.00 | 0.00 | 0.00 | 39 | 1011.7 |
| 20260906014549 | 27 | 40 | 6.4 | 9.7 | 0.00 | 0.00 | 0.00 | 39 | 1011.5 |
| 20260906013035 | 27 | 28 | 6.4 | 9.7 | 0.00 | 0.00 | 0.00 | 39 | 1011.2 |
| 20260906011540 | 26 | 18 | 6.4 | 8.0 | 0.00 | 0.00 | 0.00 | 39 | 1011.2 |
| 20260906010034 | 27 | 14 | 4.8 | 8.0 | 0.00 | 0.00 | 0.00 | 39 | 1010.9 |
| 20260906004538 | 27 | 14 | 8.0 | 11.3 | 0.00 | 0.00 | 0.00 | 39 | 1010.8 |
| 20260906003046 | 28 | 23 | 6.4 | 9.7 | 0.00 | 0.00 | 0.00 | 39 | 1010.7 |
| 20260906001533 | 29 | 28 | 6.4 | 12.9 | 0.00 | 0.00 | 0.00 | 39 | 1010.5 |
| 20260906000033 | 30 | 17 | 6.4 | 12.9 | 0.00 | 0.00 | 0.00 | 39 | 1010.8 |
| 20260905234532 | 31 | 17 | 8.0 | 14.5 | 0.00 | 0.00 | 0.00 | 39 | 1010.8 |
| 20260905233032 | 31 | 26 | 8.0 | 16.1 | 0.00 | 0.00 | 0.00 | 39 | 1010.8 |
| 20260905231536 | 32 | 24 | 9.7 | 14.5 | 0.00 | 0.00 | 0.00 | 39 | 1010.8 |
| 20260905230031 | 32 | 20 | 9.7 | 14.5 | 0.00 | 0.00 | 0.00 | 39 | 1010.8 |
| 20260905224533 | 32 | 10 | 6.4 | 17.7 | 0.00 | 0.00 | 0.00 | 39 | 1010.6 |
| 20260905223029 | 32 | 26 | 9.7 | 17.7 | 0.00 | 0.00 | 0.00 | 39 | 1010.4 |
| 20260905221529 | 32 | 329 | 9.7 | 20.9 | 0.00 | 0.00 | 0.00 | 39 | 1010.6 |
| 20260905220028 | 32 | 9 | 9.7 | 14.5 | 0.00 | 0.00 | 0.00 | 39 | 1010.5 |
| 20260905214527 | 32 | 13 | 9.7 | 16.1 | 0.00 | 0.00 | 0.00 | 39 | 1010.6 |
| 20260905213038 | 32 | 350 | 12.9 | 20.9 | 0.00 | 0.00 | 0.00 | 39 | 1010.6 |
| 20260905211531 | 33 | 12 | 12.9 | 19.3 | 0.00 | 0.00 | 0.00 | 39 | 1010.5 |
| 20260905210026 | 33 | 9 | 12.9 | 22.5 | 0.00 | 0.00 | 0.00 | 39 | 1010.6 |
| 20260905204524 | 33 | 336 | 11.3 | 17.7 | 0.00 | 0.00 | 0.00 | 39 | 1010.7 |
| 20260905203024 | 33 | 5 | 17.7 | 22.5 | 0.00 | 0.00 | 0.00 | 39 | 1010.9 |
| 20260905201522 | 33 | 351 | 17.7 | 24.1 | 0.00 | 0.00 | 0.00 | 39 | 1011.1 |
| 20260905200020 | 33 | 319 | 11.3 | 20.9 | 0.00 | 0.00 | 0.00 | 39 | 1011.0 |
| 20260905194520 | 33 | 355 | 11.3 | 20.9 | 0.00 | 0.00 | 0.00 | 39 | 1011.1 |
| 20260905193019 | 33 | 343 | 9.7 | 20.9 | 0.00 | 0.00 | 0.00 | 39 | 1011.1 |
| 20260905191519 | 33 | 319 | 6.4 | 19.3 | 0.00 | 0.00 | 0.00 | 39 | 1011.2 |
| 20260905190016 | 34 | 336 | 8.0 | 17.7 | 0.00 | 0.00 | 0.00 | 39 | 1011.3 |
| 20260905184512 | 33 | 330 | 9.7 | 19.3 | 0.00 | 0.00 | 0.00 | 39 | 1011.5 |
| 20260905183008 | 33 | 344 | 6.4 | 17.7 | 0.00 | 0.00 | 0.00 | 39 | 1011.7 |
| 20260905181505 | 33 | 323 | 11.3 | 17.7 | 0.00 | 0.00 | 0.00 | 39 | 1011.8 |
| 20260905174556 | 32 | 339 | 11.3 | 19.3 | 0.00 | 0.00 | 0.00 | 39 | 1012.1 |
| 20260905173052 | 32 | 331 | 8.0 | 14.5 | 0.00 | 0.00 | 0.00 | 39 | 1012.1 |
| 20260905171549 | 32 | 339 | 6.4 | 16.1 | 0.00 | 0.00 | 0.00 | 39 | 1012.2 |
| 20260905170053 | 32 | 350 | 8.0 | 16.1 | 0.00 | 0.00 | 0.00 | 39 | 1012.3 |
| 20260905164546 | 32 | 330 | 6.4 | 14.5 | 0.00 | 0.00 | 0.00 | 39 | 1012.4 |
| 20260905163042 | 31 | 335 | 9.7 | 14.5 | 0.00 | 0.00 | 0.00 | 39 | 1012.5 |
| 20260905161541 | 31 | 329 | 4.8 | 9.7 | 0.00 | 0.00 | 0.00 | 39 | 1012.5 |
| 20260905160046 | 31 | 323 | 4.8 | 6.4 | 0.00 | 0.00 | 0.00 | 39 | 1012.5 |
| 20260905154542 | 31 | 321 | 4.8 | 12.9 | 0.00 | 0.00 | 0.00 | 39 | 1012.5 |
| 20260905153039 | 31 | 291 | 6.4 | 11.3 | 0.00 | 0.00 | 0.00 | 39 | 1012.4 |
| 20260905151536 | 31 | 267 | 4.8 | 11.3 | 0.00 | 0.00 | 0.00 | 39 | 1012.4 |
| 20260905150035 | 30 | 264 | 6.4 | 11.3 | 0.00 | 0.00 | 0.00 | 39 | 1012.2 |
| 20260905144535 | 30 | 251 | 6.4 | 8.0 | 0.00 | 0.00 | 0.00 | 39 | 1012.0 |
| 20260905143026 | 28 | 228 | 4.8 | 8.0 | 0.00 | 0.00 | 0.00 | 39 | 1012.0 |
| 20260905141521 | 27 | 219 | 3.2 | 6.4 | 0.00 | 0.00 | 0.00 | 39 | 1012.1 |
| 20260905140020 | 28 | 219 | 3.2 | 8.0 | 0.00 | 0.00 | 0.00 | 39 | 1012.3 |
| 20260905134520 | 27 | 216 | 4.8 | 8.0 | 0.00 | 0.00 | 0.00 | 39 | 1012.2 |
| 20260905133014 | 26 | 215 | 0.0 | 3.2 | 0.00 | 0.00 | 0.00 | 39 | 1012.3 |